sensor_id;sensor_type;location;lat;lon;timestamp;P1;durP1;ratioP1;P2;durP2;ratioP2
13897;SDS011;7019;50.766;4.474;2023-04-01T00:02:02;8.40;;;1.97;;
13897;SDS011;7019;50.766;4.474;2023-04-01T00:04:31;8.27;;;1.83;;
13897;SDS011;7019;50.766;4.474;2023-04-01T00:06:58;6.30;;;1.50;;
13897;SDS011;7019;50.766;4.474;2023-04-01T00:09:26;9.50;;;2.03;;
13897;SDS011;7019;50.766;4.474;2023-04-01T00:11:53;6.07;;;1.83;;
13897;SDS011;7019;50.766;4.474;2023-04-01T00:14:21;10.90;;;1.80;;
13897;SDS011;7019;50.766;4.474;2023-04-01T00:16:48;9.50;;;2.47;;
13897;SDS011;7019;50.766;4.474;2023-04-01T00:19:15;7.13;;;1.30;;
13897;SDS011;7019;50.766;4.474;2023-04-01T00:21:43;8.10;;;1.60;;
13897;SDS011;7019;50.766;4.474;2023-04-01T00:24:11;8.70;;;1.90;;
13897;SDS011;7019;50.766;4.474;2023-04-01T00:26:38;6.57;;;1.57;;
13897;SDS011;7019;50.766;4.474;2023-04-01T00:29:07;6.37;;;1.17;;
13897;SDS011;7019;50.766;4.474;2023-04-01T00:31:34;5.57;;;1.60;;
13897;SDS011;7019;50.766;4.474;2023-04-01T00:34:01;4.23;;;1.50;;
13897;SDS011;7019;50.766;4.474;2023-04-01T00:36:29;4.70;;;1.10;;
13897;SDS011;7019;50.766;4.474;2023-04-01T00:38:58;8.83;;;1.43;;
13897;SDS011;7019;50.766;4.474;2023-04-01T00:41:25;6.77;;;1.40;;
13897;SDS011;7019;50.766;4.474;2023-04-01T00:46:40;7.03;;;2.03;;
13897;SDS011;7019;50.766;4.474;2023-04-01T00:49:07;4.10;;;1.13;;
13897;SDS011;7019;50.766;4.474;2023-04-01T00:51:35;3.17;;;0.90;;
13897;SDS011;7019;50.766;4.474;2023-04-01T00:54:05;4.10;;;1.17;;
13897;SDS011;7019;50.766;4.474;2023-04-01T00:56:35;5.80;;;1.43;;
13897;SDS011;7019;50.766;4.474;2023-04-01T00:59:05;7.33;;;1.40;;
13897;SDS011;7019;50.766;4.474;2023-04-01T01:01:36;2.37;;;1.13;;
13897;SDS011;7019;50.766;4.474;2023-04-01T01:04:03;4.73;;;0.97;;
13897;SDS011;7019;50.766;4.474;2023-04-01T01:06:35;7.93;;;1.00;;
13897;SDS011;7019;50.766;4.474;2023-04-01T01:09:23;1.80;;;0.77;;
13897;SDS011;7019;50.766;4.474;2023-04-01T01:11:58;5.57;;;0.97;;
13897;SDS011;7019;50.766;4.474;2023-04-01T01:14:37;1.70;;;0.83;;
13897;SDS011;7019;50.766;4.474;2023-04-01T01:17:13;5.90;;;1.30;;
13897;SDS011;7019;50.766;4.474;2023-04-01T01:22:52;2.50;;;0.83;;
13897;SDS011;7019;50.766;4.474;2023-04-01T01:25:40;1.70;;;0.77;;
13897;SDS011;7019;50.766;4.474;2023-04-01T01:28:18;2.97;;;1.47;;
13897;SDS011;7019;50.766;4.474;2023-04-01T01:31:02;4.23;;;1.37;;
13897;SDS011;7019;50.766;4.474;2023-04-01T01:33:49;3.87;;;1.37;;
13897;SDS011;7019;50.766;4.474;2023-04-01T01:36:25;5.63;;;1.73;;
13897;SDS011;7019;50.766;4.474;2023-04-01T01:38:55;6.70;;;1.33;;
13897;SDS011;7019;50.766;4.474;2023-04-01T01:41:23;6.73;;;2.47;;
13897;SDS011;7019;50.766;4.474;2023-04-01T01:43:52;3.17;;;1.70;;
13897;SDS011;7019;50.766;4.474;2023-04-01T01:46:23;3.90;;;1.70;;
13897;SDS011;7019;50.766;4.474;2023-04-01T01:48:53;2.67;;;1.50;;
13897;SDS011;7019;50.766;4.474;2023-04-01T01:51:21;4.63;;;1.80;;
13897;SDS011;7019;50.766;4.474;2023-04-01T01:53:50;2.50;;;1.73;;
13897;SDS011;7019;50.766;4.474;2023-04-01T01:56:17;3.27;;;2.10;;
13897;SDS011;7019;50.766;4.474;2023-04-01T01:58:47;5.73;;;2.30;;
13897;SDS011;7019;50.766;4.474;2023-04-01T02:01:18;3.77;;;2.00;;
13897;SDS011;7019;50.766;4.474;2023-04-01T02:03:50;4.50;;;2.40;;
13897;SDS011;7019;50.766;4.474;2023-04-01T02:06:19;5.50;;;2.87;;
13897;SDS011;7019;50.766;4.474;2023-04-01T02:08:51;3.37;;;2.37;;
13897;SDS011;7019;50.766;4.474;2023-04-01T02:11:22;7.20;;;3.27;;
13897;SDS011;7019;50.766;4.474;2023-04-01T02:13:54;6.80;;;2.53;;
13897;SDS011;7019;50.766;4.474;2023-04-01T02:16:27;4.63;;;2.63;;
13897;SDS011;7019;50.766;4.474;2023-04-01T02:18:59;4.27;;;2.47;;
13897;SDS011;7019;50.766;4.474;2023-04-01T02:21:32;5.60;;;2.80;;
13897;SDS011;7019;50.766;4.474;2023-04-01T02:24:03;4.30;;;2.50;;
13897;SDS011;7019;50.766;4.474;2023-04-01T02:26:33;6.27;;;2.63;;
13897;SDS011;7019;50.766;4.474;2023-04-01T02:29:01;6.27;;;2.60;;
13897;SDS011;7019;50.766;4.474;2023-04-01T02:31:30;7.90;;;3.50;;
13897;SDS011;7019;50.766;4.474;2023-04-01T02:33:58;4.90;;;2.63;;
13897;SDS011;7019;50.766;4.474;2023-04-01T02:36:25;5.03;;;3.87;;
13897;SDS011;7019;50.766;4.474;2023-04-01T02:38:53;5.27;;;3.17;;
13897;SDS011;7019;50.766;4.474;2023-04-01T02:41:25;8.07;;;3.97;;
13897;SDS011;7019;50.766;4.474;2023-04-01T02:43:52;6.27;;;3.47;;
13897;SDS011;7019;50.766;4.474;2023-04-01T02:46:20;7.37;;;3.80;;
13897;SDS011;7019;50.766;4.474;2023-04-01T02:48:47;5.10;;;3.23;;
13897;SDS011;7019;50.766;4.474;2023-04-01T02:51:14;5.80;;;3.40;;
13897;SDS011;7019;50.766;4.474;2023-04-01T02:53:41;7.03;;;3.80;;
13897;SDS011;7019;50.766;4.474;2023-04-01T02:56:08;6.27;;;3.70;;
13897;SDS011;7019;50.766;4.474;2023-04-01T02:58:36;8.47;;;4.50;;
13897;SDS011;7019;50.766;4.474;2023-04-01T03:01:03;5.20;;;3.77;;
13897;SDS011;7019;50.766;4.474;2023-04-01T03:03:32;8.77;;;4.00;;
13897;SDS011;7019;50.766;4.474;2023-04-01T03:06:04;9.00;;;4.40;;
13897;SDS011;7019;50.766;4.474;2023-04-01T03:08:31;9.37;;;4.50;;
13897;SDS011;7019;50.766;4.474;2023-04-01T03:10:58;11.23;;;4.93;;
13897;SDS011;7019;50.766;4.474;2023-04-01T03:13:26;9.40;;;4.70;;
13897;SDS011;7019;50.766;4.474;2023-04-01T03:15:54;11.60;;;4.93;;
13897;SDS011;7019;50.766;4.474;2023-04-01T03:18:21;8.27;;;4.80;;
13897;SDS011;7019;50.766;4.474;2023-04-01T03:20:48;7.53;;;4.77;;
13897;SDS011;7019;50.766;4.474;2023-04-01T03:23:15;12.27;;;4.97;;
13897;SDS011;7019;50.766;4.474;2023-04-01T03:25:44;10.77;;;4.73;;
13897;SDS011;7019;50.766;4.474;2023-04-01T03:28:11;11.07;;;5.07;;
13897;SDS011;7019;50.766;4.474;2023-04-01T03:30:39;8.27;;;4.93;;
13897;SDS011;7019;50.766;4.474;2023-04-01T03:33:07;8.37;;;4.93;;
13897;SDS011;7019;50.766;4.474;2023-04-01T03:35:34;10.60;;;6.33;;
13897;SDS011;7019;50.766;4.474;2023-04-01T03:38:02;10.97;;;5.10;;
13897;SDS011;7019;50.766;4.474;2023-04-01T03:40:29;11.27;;;6.33;;
13897;SDS011;7019;50.766;4.474;2023-04-01T03:42:58;11.00;;;6.17;;
13897;SDS011;7019;50.766;4.474;2023-04-01T03:45:25;13.30;;;5.90;;
13897;SDS011;7019;50.766;4.474;2023-04-01T03:47:52;14.50;;;6.30;;
13897;SDS011;7019;50.766;4.474;2023-04-01T03:50:21;9.43;;;5.60;;
13897;SDS011;7019;50.766;4.474;2023-04-01T03:52:48;12.70;;;6.23;;
13897;SDS011;7019;50.766;4.474;2023-04-01T03:55:16;10.73;;;6.07;;
13897;SDS011;7019;50.766;4.474;2023-04-01T03:57:44;11.27;;;5.97;;
13897;SDS011;7019;50.766;4.474;2023-04-01T04:00:11;16.73;;;6.87;;
13897;SDS011;7019;50.766;4.474;2023-04-01T04:02:39;15.00;;;6.80;;
13897;SDS011;7019;50.766;4.474;2023-04-01T04:05:06;17.70;;;7.70;;
13897;SDS011;7019;50.766;4.474;2023-04-01T04:07:35;17.00;;;7.10;;
13897;SDS011;7019;50.766;4.474;2023-04-01T04:10:02;14.57;;;7.07;;
13897;SDS011;7019;50.766;4.474;2023-04-01T04:12:29;14.20;;;7.10;;
13897;SDS011;7019;50.766;4.474;2023-04-01T04:14:57;10.23;;;6.80;;
13897;SDS011;7019;50.766;4.474;2023-04-01T04:17:24;12.40;;;7.03;;
13897;SDS011;7019;50.766;4.474;2023-04-01T04:19:51;13.47;;;7.73;;
13897;SDS011;7019;50.766;4.474;2023-04-01T04:22:18;14.10;;;6.33;;
13897;SDS011;7019;50.766;4.474;2023-04-01T04:24:46;17.83;;;6.37;;
13897;SDS011;7019;50.766;4.474;2023-04-01T04:27:13;13.37;;;7.07;;
13897;SDS011;7019;50.766;4.474;2023-04-01T04:29:40;12.37;;;6.97;;
13897;SDS011;7019;50.766;4.474;2023-04-01T04:32:08;9.50;;;6.47;;
13897;SDS011;7019;50.766;4.474;2023-04-01T04:34:35;13.40;;;7.23;;
13897;SDS011;7019;50.766;4.474;2023-04-01T04:37:02;11.23;;;6.90;;
13897;SDS011;7019;50.766;4.474;2023-04-01T04:39:29;10.57;;;6.87;;
13897;SDS011;7019;50.766;4.474;2023-04-01T04:41:57;12.43;;;6.50;;
13897;SDS011;7019;50.766;4.474;2023-04-01T04:44:24;9.23;;;6.63;;
13897;SDS011;7019;50.766;4.474;2023-04-01T04:46:51;9.00;;;6.77;;
13897;SDS011;7019;50.766;4.474;2023-04-01T04:49:18;11.33;;;6.60;;
13897;SDS011;7019;50.766;4.474;2023-04-01T04:51:45;12.30;;;6.90;;
13897;SDS011;7019;50.766;4.474;2023-04-01T04:54:13;10.47;;;6.13;;
13897;SDS011;7019;50.766;4.474;2023-04-01T04:56:40;9.40;;;5.90;;
13897;SDS011;7019;50.766;4.474;2023-04-01T04:59:08;9.80;;;6.27;;
13897;SDS011;7019;50.766;4.474;2023-04-01T05:01:35;7.97;;;6.00;;
13897;SDS011;7019;50.766;4.474;2023-04-01T05:04:02;11.57;;;6.60;;
13897;SDS011;7019;50.766;4.474;2023-04-01T05:06:30;12.17;;;6.27;;
13897;SDS011;7019;50.766;4.474;2023-04-01T05:08:57;9.43;;;6.87;;
13897;SDS011;7019;50.766;4.474;2023-04-01T05:11:24;13.00;;;6.10;;
13897;SDS011;7019;50.766;4.474;2023-04-01T05:13:52;11.10;;;6.60;;
13897;SDS011;7019;50.766;4.474;2023-04-01T05:16:21;8.57;;;5.20;;
13897;SDS011;7019;50.766;4.474;2023-04-01T05:18:48;11.53;;;7.13;;
13897;SDS011;7019;50.766;4.474;2023-04-01T05:21:15;8.43;;;4.53;;
13897;SDS011;7019;50.766;4.474;2023-04-01T05:23:42;10.33;;;5.17;;
13897;SDS011;7019;50.766;4.474;2023-04-01T05:26:10;9.30;;;4.73;;
13897;SDS011;7019;50.766;4.474;2023-04-01T05:28:38;10.70;;;5.07;;
13897;SDS011;7019;50.766;4.474;2023-04-01T05:31:06;8.07;;;4.70;;
13897;SDS011;7019;50.766;4.474;2023-04-01T05:33:35;9.23;;;4.50;;
13897;SDS011;7019;50.766;4.474;2023-04-01T05:36:06;9.37;;;5.00;;
13897;SDS011;7019;50.766;4.474;2023-04-01T05:38:33;7.37;;;4.23;;
13897;SDS011;7019;50.766;4.474;2023-04-01T05:41:01;8.50;;;5.10;;
13897;SDS011;7019;50.766;4.474;2023-04-01T05:43:28;7.20;;;4.70;;
13897;SDS011;7019;50.766;4.474;2023-04-01T05:45:56;8.13;;;4.80;;
13897;SDS011;7019;50.766;4.474;2023-04-01T05:48:23;11.20;;;5.97;;
13897;SDS011;7019;50.766;4.474;2023-04-01T05:50:51;13.07;;;5.40;;
13897;SDS011;7019;50.766;4.474;2023-04-01T05:53:18;6.70;;;4.77;;
13897;SDS011;7019;50.766;4.474;2023-04-01T05:55:46;8.10;;;5.60;;
13897;SDS011;7019;50.766;4.474;2023-04-01T05:58:13;10.10;;;7.07;;
13897;SDS011;7019;50.766;4.474;2023-04-01T06:00:40;11.47;;;6.77;;
13897;SDS011;7019;50.766;4.474;2023-04-01T06:03:07;11.13;;;5.80;;
13897;SDS011;7019;50.766;4.474;2023-04-01T06:05:37;8.77;;;5.97;;
13897;SDS011;7019;50.766;4.474;2023-04-01T06:08:09;9.50;;;5.33;;
13897;SDS011;7019;50.766;4.474;2023-04-01T06:10:41;9.87;;;6.43;;
13897;SDS011;7019;50.766;4.474;2023-04-01T06:13:17;11.27;;;6.13;;
13897;SDS011;7019;50.766;4.474;2023-04-01T06:15:56;11.10;;;6.93;;
13897;SDS011;7019;50.766;4.474;2023-04-01T06:24:59;6.97;;;5.67;;
13897;SDS011;7019;50.766;4.474;2023-04-01T06:27:47;12.93;;;6.23;;
13897;SDS011;7019;50.766;4.474;2023-04-01T06:30:24;10.20;;;6.93;;
13897;SDS011;7019;50.766;4.474;2023-04-01T06:33:03;14.83;;;6.97;;
13897;SDS011;7019;50.766;4.474;2023-04-01T06:35:48;11.47;;;7.07;;
13897;SDS011;7019;50.766;4.474;2023-04-01T06:38:34;12.00;;;8.07;;
13897;SDS011;7019;50.766;4.474;2023-04-01T06:41:36;15.63;;;6.97;;
13897;SDS011;7019;50.766;4.474;2023-04-01T06:44:18;16.87;;;7.73;;
13897;SDS011;7019;50.766;4.474;2023-04-01T06:46:54;11.60;;;7.60;;
13897;SDS011;7019;50.766;4.474;2023-04-01T06:49:29;14.90;;;8.03;;
13897;SDS011;7019;50.766;4.474;2023-04-01T06:52:10;11.47;;;7.33;;
13897;SDS011;7019;50.766;4.474;2023-04-01T06:54:46;11.80;;;7.23;;
13897;SDS011;7019;50.766;4.474;2023-04-01T06:57:20;12.90;;;6.97;;
13897;SDS011;7019;50.766;4.474;2023-04-01T06:59:51;10.80;;;6.30;;
13897;SDS011;7019;50.766;4.474;2023-04-01T07:02:23;11.00;;;6.70;;
13897;SDS011;7019;50.766;4.474;2023-04-01T07:04:55;9.57;;;6.27;;
13897;SDS011;7019;50.766;4.474;2023-04-01T07:07:27;8.60;;;5.97;;
13897;SDS011;7019;50.766;4.474;2023-04-01T07:10:02;10.73;;;6.17;;
13897;SDS011;7019;50.766;4.474;2023-04-01T07:12:40;8.20;;;5.83;;
13897;SDS011;7019;50.766;4.474;2023-04-01T07:15:15;10.33;;;4.77;;
13897;SDS011;7019;50.766;4.474;2023-04-01T07:17:46;7.70;;;4.70;;
13897;SDS011;7019;50.766;4.474;2023-04-01T07:20:20;10.73;;;4.83;;
13897;SDS011;7019;50.766;4.474;2023-04-01T07:22:51;7.20;;;5.13;;
13897;SDS011;7019;50.766;4.474;2023-04-01T07:25:22;7.47;;;5.10;;
13897;SDS011;7019;50.766;4.474;2023-04-01T07:27:53;7.63;;;4.13;;
13897;SDS011;7019;50.766;4.474;2023-04-01T07:30:26;5.80;;;4.10;;
13897;SDS011;7019;50.766;4.474;2023-04-01T07:33:01;6.30;;;4.40;;
13897;SDS011;7019;50.766;4.474;2023-04-01T07:35:36;4.37;;;3.63;;
13897;SDS011;7019;50.766;4.474;2023-04-01T07:38:12;6.33;;;4.00;;
13897;SDS011;7019;50.766;4.474;2023-04-01T07:40:49;4.80;;;3.83;;
13897;SDS011;7019;50.766;4.474;2023-04-01T07:43:40;6.07;;;3.60;;
13897;SDS011;7019;50.766;4.474;2023-04-01T07:46:19;7.20;;;4.20;;
13897;SDS011;7019;50.766;4.474;2023-04-01T07:48:56;6.47;;;4.10;;
13897;SDS011;7019;50.766;4.474;2023-04-01T07:51:31;5.10;;;3.80;;
13897;SDS011;7019;50.766;4.474;2023-04-01T07:54:07;6.47;;;3.83;;
13897;SDS011;7019;50.766;4.474;2023-04-01T07:56:40;4.40;;;3.97;;
13897;SDS011;7019;50.766;4.474;2023-04-01T07:59:14;6.23;;;3.47;;
13897;SDS011;7019;50.766;4.474;2023-04-01T08:01:50;4.60;;;3.03;;
13897;SDS011;7019;50.766;4.474;2023-04-01T08:04:32;2.57;;;1.97;;
13897;SDS011;7019;50.766;4.474;2023-04-01T08:07:09;2.67;;;2.03;;
13897;SDS011;7019;50.766;4.474;2023-04-01T08:09:42;2.20;;;1.90;;
13897;SDS011;7019;50.766;4.474;2023-04-01T08:12:18;2.70;;;2.10;;
13897;SDS011;7019;50.766;4.474;2023-04-01T08:14:58;4.03;;;2.13;;
13897;SDS011;7019;50.766;4.474;2023-04-01T08:17:35;2.10;;;1.77;;
13897;SDS011;7019;50.766;4.474;2023-04-01T08:22:59;4.33;;;2.20;;
13897;SDS011;7019;50.766;4.474;2023-04-01T08:25:34;4.93;;;1.80;;
13897;SDS011;7019;50.766;4.474;2023-04-01T08:28:09;2.13;;;1.40;;
13897;SDS011;7019;50.766;4.474;2023-04-01T08:30:43;3.10;;;1.50;;
13897;SDS011;7019;50.766;4.474;2023-04-01T08:33:15;2.37;;;1.57;;
13897;SDS011;7019;50.766;4.474;2023-04-01T08:35:46;2.13;;;1.30;;
13897;SDS011;7019;50.766;4.474;2023-04-01T08:38:19;2.83;;;2.00;;
13897;SDS011;7019;50.766;4.474;2023-04-01T08:41:07;3.27;;;2.13;;
13897;SDS011;7019;50.766;4.474;2023-04-01T08:52:53;2.93;;;1.43;;
13897;SDS011;7019;50.766;4.474;2023-04-01T08:55:37;2.67;;;1.00;;
13897;SDS011;7019;50.766;4.474;2023-04-01T08:58:23;2.83;;;1.60;;
13897;SDS011;7019;50.766;4.474;2023-04-01T09:01:15;3.03;;;1.53;;
13897;SDS011;7019;50.766;4.474;2023-04-01T09:04:01;1.87;;;1.07;;
13897;SDS011;7019;50.766;4.474;2023-04-01T09:06:48;2.13;;;1.07;;
13897;SDS011;7019;50.766;4.474;2023-04-01T09:09:35;1.93;;;0.80;;
13897;SDS011;7019;50.766;4.474;2023-04-01T09:21:35;1.23;;;0.97;;
13897;SDS011;7019;50.766;4.474;2023-04-01T09:24:26;1.50;;;0.97;;
13897;SDS011;7019;50.766;4.474;2023-04-01T09:27:19;2.37;;;1.73;;
13897;SDS011;7019;50.766;4.474;2023-04-01T09:29:59;1.63;;;1.20;;
13897;SDS011;7019;50.766;4.474;2023-04-01T09:32:54;3.03;;;2.27;;
13897;SDS011;7019;50.766;4.474;2023-04-01T09:35:56;69.97;;;9.77;;
13897;SDS011;7019;50.766;4.474;2023-04-01T09:38:34;26.53;;;4.87;;
13897;SDS011;7019;50.766;4.474;2023-04-01T09:41:14;175.73;;;24.90;;
13897;SDS011;7019;50.766;4.474;2023-04-01T09:43:56;15.37;;;2.97;;
13897;SDS011;7019;50.766;4.474;2023-04-01T09:46:31;53.30;;;8.10;;
13897;SDS011;7019;50.766;4.474;2023-04-01T09:49:19;20.33;;;4.50;;
13897;SDS011;7019;50.766;4.474;2023-04-01T09:52:20;7.80;;;2.00;;
13897;SDS011;7019;50.766;4.474;2023-04-01T09:54:59;2.30;;;1.33;;
13897;SDS011;7019;50.766;4.474;2023-04-01T10:00:56;1.73;;;1.60;;
13897;SDS011;7019;50.766;4.474;2023-04-01T10:04:09;2.90;;;2.07;;
13897;SDS011;7019;50.766;4.474;2023-04-01T10:07:15;3.00;;;1.23;;
13897;SDS011;7019;50.766;4.474;2023-04-01T10:10:18;1.70;;;1.50;;
13897;SDS011;7019;50.766;4.474;2023-04-01T10:16:39;1.10;;;1.00;;
13897;SDS011;7019;50.766;4.474;2023-04-01T10:19:41;2.00;;;1.80;;
13897;SDS011;7019;50.766;4.474;2023-04-01T10:22:37;1.43;;;1.00;;
13897;SDS011;7019;50.766;4.474;2023-04-01T10:25:34;1.07;;;0.97;;
13897;SDS011;7019;50.766;4.474;2023-04-01T10:28:54;1.80;;;1.07;;
13897;SDS011;7019;50.766;4.474;2023-04-01T10:32:15;1.47;;;0.83;;
13897;SDS011;7019;50.766;4.474;2023-04-01T10:41:15;1.30;;;0.90;;
13897;SDS011;7019;50.766;4.474;2023-04-01T10:44:11;1.20;;;0.90;;
13897;SDS011;7019;50.766;4.474;2023-04-01T10:50:25;1.10;;;1.00;;
13897;SDS011;7019;50.766;4.474;2023-04-01T10:53:28;1.23;;;0.80;;
13897;SDS011;7019;50.766;4.474;2023-04-01T10:56:11;1.53;;;1.10;;
13897;SDS011;7019;50.766;4.474;2023-04-01T10:59:16;4.67;;;4.27;;
13897;SDS011;7019;50.766;4.474;2023-04-01T11:05:45;1.30;;;1.10;;
13897;SDS011;7019;50.766;4.474;2023-04-01T11:15:17;1.57;;;1.20;;
13897;SDS011;7019;50.766;4.474;2023-04-01T11:24:24;1.93;;;1.13;;
13897;SDS011;7019;50.766;4.474;2023-04-01T11:27:31;1.20;;;1.10;;
13897;SDS011;7019;50.766;4.474;2023-04-01T11:30:20;2.13;;;1.53;;
13897;SDS011;7019;50.766;4.474;2023-04-01T11:32:57;1.53;;;1.10;;
13897;SDS011;7019;50.766;4.474;2023-04-01T11:38:38;4.93;;;1.23;;
13897;SDS011;7019;50.766;4.474;2023-04-01T11:41:19;1.43;;;1.13;;
13897;SDS011;7019;50.766;4.474;2023-04-01T11:43:57;2.43;;;1.00;;
13897;SDS011;7019;50.766;4.474;2023-04-01T11:46:40;1.83;;;1.00;;
13897;SDS011;7019;50.766;4.474;2023-04-01T11:49:35;2.20;;;0.80;;
13897;SDS011;7019;50.766;4.474;2023-04-01T11:52:25;2.07;;;0.90;;
13897;SDS011;7019;50.766;4.474;2023-04-01T11:55:13;1.17;;;1.07;;
13897;SDS011;7019;50.766;4.474;2023-04-01T11:58:12;2.03;;;1.10;;
13897;SDS011;7019;50.766;4.474;2023-04-01T12:03:46;1.70;;;0.97;;
13897;SDS011;7019;50.766;4.474;2023-04-01T12:06:34;1.63;;;1.20;;
13897;SDS011;7019;50.766;4.474;2023-04-01T12:09:09;1.00;;;0.90;;
13897;SDS011;7019;50.766;4.474;2023-04-01T12:11:48;1.13;;;0.93;;
13897;SDS011;7019;50.766;4.474;2023-04-01T12:14:25;2.53;;;1.00;;
13897;SDS011;7019;50.766;4.474;2023-04-01T12:17:04;1.47;;;1.37;;
13897;SDS011;7019;50.766;4.474;2023-04-01T12:19:40;3.33;;;1.00;;
13897;SDS011;7019;50.766;4.474;2023-04-01T12:22:27;2.43;;;1.10;;
13897;SDS011;7019;50.766;4.474;2023-04-01T12:25:07;1.20;;;0.90;;
13897;SDS011;7019;50.766;4.474;2023-04-01T12:27:55;1.10;;;1.00;;
13897;SDS011;7019;50.766;4.474;2023-04-01T12:30:34;1.10;;;1.00;;
13897;SDS011;7019;50.766;4.474;2023-04-01T12:36:19;2.70;;;1.20;;
13897;SDS011;7019;50.766;4.474;2023-04-01T12:39:05;3.73;;;1.20;;
13897;SDS011;7019;50.766;4.474;2023-04-01T12:41:48;5.40;;;2.27;;
13897;SDS011;7019;50.766;4.474;2023-04-01T12:44:35;2.00;;;1.50;;
13897;SDS011;7019;50.766;4.474;2023-04-01T12:47:30;3.17;;;1.83;;
13897;SDS011;7019;50.766;4.474;2023-04-01T12:50:19;2.13;;;1.53;;
13897;SDS011;7019;50.766;4.474;2023-04-01T12:52:59;1.93;;;1.60;;
13897;SDS011;7019;50.766;4.474;2023-04-01T12:55:47;3.13;;;2.00;;
13897;SDS011;7019;50.766;4.474;2023-04-01T13:01:30;2.87;;;2.63;;
13897;SDS011;7019;50.766;4.474;2023-04-01T13:07:31;4.30;;;3.20;;
13897;SDS011;7019;50.766;4.474;2023-04-01T13:10:11;2.93;;;2.63;;
13897;SDS011;7019;50.766;4.474;2023-04-01T13:12:54;4.77;;;3.10;;
13897;SDS011;7019;50.766;4.474;2023-04-01T13:15:40;3.30;;;2.63;;
13897;SDS011;7019;50.766;4.474;2023-04-01T13:18:17;3.77;;;2.73;;
13897;SDS011;7019;50.766;4.474;2023-04-01T13:20:53;6.73;;;3.50;;
13897;SDS011;7019;50.766;4.474;2023-04-01T13:23:30;6.50;;;4.07;;
13897;SDS011;7019;50.766;4.474;2023-04-01T13:26:06;20.27;;;5.27;;
13897;SDS011;7019;50.766;4.474;2023-04-01T13:28:46;7.93;;;3.37;;
13897;SDS011;7019;50.766;4.474;2023-04-01T13:31:25;5.73;;;3.23;;
13897;SDS011;7019;50.766;4.474;2023-04-01T13:34:09;10.63;;;3.13;;
13897;SDS011;7019;50.766;4.474;2023-04-01T13:36:51;15.03;;;3.03;;
13897;SDS011;7019;50.766;4.474;2023-04-01T13:39:32;42.63;;;7.63;;
13897;SDS011;7019;50.766;4.474;2023-04-01T13:42:15;24.80;;;5.70;;
13897;SDS011;7019;50.766;4.474;2023-04-01T13:44:48;3.80;;;2.20;;
13897;SDS011;7019;50.766;4.474;2023-04-01T13:53:43;4.33;;;2.37;;
13897;SDS011;7019;50.766;4.474;2023-04-01T13:56:44;16.43;;;4.17;;
13897;SDS011;7019;50.766;4.474;2023-04-01T14:02:34;4.37;;;2.30;;
13897;SDS011;7019;50.766;4.474;2023-04-01T14:05:33;8.13;;;5.60;;
13897;SDS011;7019;50.766;4.474;2023-04-01T14:08:15;8.43;;;5.13;;
13897;SDS011;7019;50.766;4.474;2023-04-01T14:10:55;3.37;;;2.03;;
13897;SDS011;7019;50.766;4.474;2023-04-01T14:13:34;4.53;;;2.97;;
13897;SDS011;7019;50.766;4.474;2023-04-01T14:16:14;4.07;;;2.30;;
13897;SDS011;7019;50.766;4.474;2023-04-01T14:19:08;2.30;;;1.70;;
13897;SDS011;7019;50.766;4.474;2023-04-01T14:21:50;2.03;;;1.63;;
13897;SDS011;7019;50.766;4.474;2023-04-01T14:24:42;4.10;;;2.97;;
13897;SDS011;7019;50.766;4.474;2023-04-01T14:27:22;5.13;;;2.60;;
13897;SDS011;7019;50.766;4.474;2023-04-01T14:33:12;4.13;;;2.10;;
13897;SDS011;7019;50.766;4.474;2023-04-01T14:35:53;2.43;;;1.60;;
13897;SDS011;7019;50.766;4.474;2023-04-01T14:38:42;3.87;;;2.23;;
13897;SDS011;7019;50.766;4.474;2023-04-01T14:41:21;3.50;;;1.93;;
13897;SDS011;7019;50.766;4.474;2023-04-01T14:44:12;3.50;;;1.80;;
13897;SDS011;7019;50.766;4.474;2023-04-01T14:47:07;2.13;;;0.90;;
13897;SDS011;7019;50.766;4.474;2023-04-01T14:49:52;5.23;;;2.13;;
13897;SDS011;7019;50.766;4.474;2023-04-01T14:52:30;1.80;;;1.10;;
13897;SDS011;7019;50.766;4.474;2023-04-01T14:54:59;2.43;;;1.70;;
13897;SDS011;7019;50.766;4.474;2023-04-01T14:57:29;1.03;;;0.87;;
13897;SDS011;7019;50.766;4.474;2023-04-01T15:00:01;3.53;;;1.33;;
13897;SDS011;7019;50.766;4.474;2023-04-01T15:02:45;1.77;;;0.90;;
13897;SDS011;7019;50.766;4.474;2023-04-01T15:05:23;0.90;;;0.40;;
13897;SDS011;7019;50.766;4.474;2023-04-01T15:08:13;1.73;;;1.00;;
13897;SDS011;7019;50.766;4.474;2023-04-01T15:13:37;1.57;;;0.53;;
13897;SDS011;7019;50.766;4.474;2023-04-01T15:16:25;3.10;;;0.90;;
13897;SDS011;7019;50.766;4.474;2023-04-01T15:19:01;1.00;;;0.70;;
13897;SDS011;7019;50.766;4.474;2023-04-01T15:21:50;1.33;;;0.80;;
13897;SDS011;7019;50.766;4.474;2023-04-01T15:24:46;2.00;;;0.80;;
13897;SDS011;7019;50.766;4.474;2023-04-01T15:27:31;1.40;;;1.00;;
13897;SDS011;7019;50.766;4.474;2023-04-01T15:30:16;2.10;;;1.20;;
13897;SDS011;7019;50.766;4.474;2023-04-01T15:32:56;2.60;;;1.13;;
13897;SDS011;7019;50.766;4.474;2023-04-01T15:35:39;1.10;;;0.80;;
13897;SDS011;7019;50.766;4.474;2023-04-01T15:38:14;1.60;;;0.80;;
13897;SDS011;7019;50.766;4.474;2023-04-01T15:40:52;1.63;;;1.00;;
13897;SDS011;7019;50.766;4.474;2023-04-01T15:43:27;0.97;;;0.70;;
13897;SDS011;7019;50.766;4.474;2023-04-01T15:46:09;0.87;;;0.70;;
13897;SDS011;7019;50.766;4.474;2023-04-01T15:48:52;1.50;;;0.90;;
13897;SDS011;7019;50.766;4.474;2023-04-01T15:51:41;2.90;;;1.50;;
13897;SDS011;7019;50.766;4.474;2023-04-01T15:54:23;2.27;;;1.23;;
13897;SDS011;7019;50.766;4.474;2023-04-01T15:57:14;3.83;;;1.20;;
13897;SDS011;7019;50.766;4.474;2023-04-01T15:59:56;1.47;;;0.57;;
13897;SDS011;7019;50.766;4.474;2023-04-01T16:02:47;1.80;;;0.93;;
13897;SDS011;7019;50.766;4.474;2023-04-01T16:05:24;1.50;;;0.77;;
13897;SDS011;7019;50.766;4.474;2023-04-01T16:08:02;1.30;;;1.10;;
13897;SDS011;7019;50.766;4.474;2023-04-01T16:10:56;1.53;;;0.93;;
13897;SDS011;7019;50.766;4.474;2023-04-01T16:13:32;2.63;;;1.20;;
13897;SDS011;7019;50.766;4.474;2023-04-01T16:16:13;3.37;;;1.43;;
13897;SDS011;7019;50.766;4.474;2023-04-01T16:18:54;4.00;;;1.50;;
13897;SDS011;7019;50.766;4.474;2023-04-01T16:21:43;1.97;;;0.93;;
13897;SDS011;7019;50.766;4.474;2023-04-01T16:24:17;1.70;;;0.90;;
13897;SDS011;7019;50.766;4.474;2023-04-01T16:26:50;2.47;;;0.77;;
13897;SDS011;7019;50.766;4.474;2023-04-01T16:29:24;1.13;;;0.90;;
13897;SDS011;7019;50.766;4.474;2023-04-01T16:32:00;3.47;;;1.40;;
13897;SDS011;7019;50.766;4.474;2023-04-01T16:34:38;2.63;;;0.90;;
13897;SDS011;7019;50.766;4.474;2023-04-01T16:37:10;2.03;;;1.27;;
13897;SDS011;7019;50.766;4.474;2023-04-01T16:39:43;1.90;;;0.90;;
13897;SDS011;7019;50.766;4.474;2023-04-01T16:42:26;1.60;;;1.10;;
13897;SDS011;7019;50.766;4.474;2023-04-01T16:45:06;3.80;;;1.03;;
13897;SDS011;7019;50.766;4.474;2023-04-01T16:47:46;2.53;;;1.47;;
13897;SDS011;7019;50.766;4.474;2023-04-01T16:50:18;1.30;;;1.10;;
13897;SDS011;7019;50.766;4.474;2023-04-01T16:52:53;2.40;;;0.90;;
13897;SDS011;7019;50.766;4.474;2023-04-01T16:55:32;1.10;;;0.70;;
13897;SDS011;7019;50.766;4.474;2023-04-01T16:58:01;1.40;;;1.00;;
13897;SDS011;7019;50.766;4.474;2023-04-01T17:00:30;2.60;;;1.20;;
13897;SDS011;7019;50.766;4.474;2023-04-01T17:03:08;2.20;;;1.30;;
13897;SDS011;7019;50.766;4.474;2023-04-01T17:05:49;2.40;;;1.10;;
13897;SDS011;7019;50.766;4.474;2023-04-01T17:08:32;2.00;;;1.47;;
13897;SDS011;7019;50.766;4.474;2023-04-01T17:11:08;4.60;;;1.77;;
13897;SDS011;7019;50.766;4.474;2023-04-01T17:13:46;2.00;;;1.70;;
13897;SDS011;7019;50.766;4.474;2023-04-01T17:16:28;2.33;;;1.50;;
13897;SDS011;7019;50.766;4.474;2023-04-01T17:19:23;2.20;;;1.57;;
13897;SDS011;7019;50.766;4.474;2023-04-01T17:22:04;2.87;;;1.47;;
13897;SDS011;7019;50.766;4.474;2023-04-01T17:24:50;3.20;;;1.43;;
13897;SDS011;7019;50.766;4.474;2023-04-01T17:27:33;1.77;;;1.23;;
13897;SDS011;7019;50.766;4.474;2023-04-01T17:30:17;4.07;;;1.53;;
13897;SDS011;7019;50.766;4.474;2023-04-01T17:36:04;2.47;;;1.57;;
13897;SDS011;7019;50.766;4.474;2023-04-01T17:41:46;2.70;;;1.47;;